sensor_id;sensor_type;location;lat;lon;timestamp;temperature;humidity
34726;DHT22;20951;50.818;4.344;2023-02-23T00:01:27;10.10;99.90
34726;DHT22;20951;50.818;4.344;2023-02-23T00:03:57;10.10;99.90
34726;DHT22;20951;50.818;4.344;2023-02-23T00:06:25;10.00;99.90
34726;DHT22;20951;50.818;4.344;2023-02-23T00:08:54;10.00;99.90
34726;DHT22;20951;50.818;4.344;2023-02-23T00:11:21;10.00;99.90
34726;DHT22;20951;50.818;4.344;2023-02-23T00:13:50;9.80;99.90
34726;DHT22;20951;50.818;4.344;2023-02-23T00:16:22;9.60;99.90
34726;DHT22;20951;50.818;4.344;2023-02-23T00:18:56;9.70;99.90
34726;DHT22;20951;50.818;4.344;2023-02-23T00:21:32;9.80;99.90
34726;DHT22;20951;50.818;4.344;2023-02-23T00:24:07;9.90;99.90
34726;DHT22;20951;50.818;4.344;2023-02-23T00:26:34;9.90;99.90
34726;DHT22;20951;50.818;4.344;2023-02-23T00:29:02;10.00;99.90
34726;DHT22;20951;50.818;4.344;2023-02-23T00:31:29;10.10;99.90
34726;DHT22;20951;50.818;4.344;2023-02-23T00:33:57;10.20;99.90
34726;DHT22;20951;50.818;4.344;2023-02-23T00:36:26;9.90;99.90
34726;DHT22;20951;50.818;4.344;2023-02-23T00:38:54;9.90;99.90
34726;DHT22;20951;50.818;4.344;2023-02-23T00:41:21;10.00;99.90
34726;DHT22;20951;50.818;4.344;2023-02-23T00:43:50;10.00;99.90
34726;DHT22;20951;50.818;4.344;2023-02-23T00:46:20;9.90;99.90
34726;DHT22;20951;50.818;4.344;2023-02-23T00:48:47;9.90;99.90
34726;DHT22;20951;50.818;4.344;2023-02-23T00:51:14;9.70;99.90
34726;DHT22;20951;50.818;4.344;2023-02-23T00:53:42;9.80;99.90
34726;DHT22;20951;50.818;4.344;2023-02-23T00:56:10;9.80;99.90
34726;DHT22;20951;50.818;4.344;2023-02-23T00:58:37;9.70;99.90
34726;DHT22;20951;50.818;4.344;2023-02-23T01:01:10;9.80;99.90
34726;DHT22;20951;50.818;4.344;2023-02-23T01:03:37;9.90;99.90
34726;DHT22;20951;50.818;4.344;2023-02-23T01:06:05;9.80;99.90
34726;DHT22;20951;50.818;4.344;2023-02-23T01:08:32;9.70;99.90
34726;DHT22;20951;50.818;4.344;2023-02-23T01:10:59;9.40;99.90
34726;DHT22;20951;50.818;4.344;2023-02-23T01:13:30;9.40;99.90
34726;DHT22;20951;50.818;4.344;2023-02-23T01:15:56;9.40;99.90
34726;DHT22;20951;50.818;4.344;2023-02-23T01:18:22;9.50;99.90
34726;DHT22;20951;50.818;4.344;2023-02-23T01:20:48;9.50;99.90
34726;DHT22;20951;50.818;4.344;2023-02-23T01:23:15;9.60;99.90
34726;DHT22;20951;50.818;4.344;2023-02-23T01:25:43;9.60;99.90
34726;DHT22;20951;50.818;4.344;2023-02-23T01:28:10;9.50;99.90
34726;DHT22;20951;50.818;4.344;2023-02-23T01:30:37;9.60;99.90
34726;DHT22;20951;50.818;4.344;2023-02-23T01:33:03;9.60;99.90
34726;DHT22;20951;50.818;4.344;2023-02-23T01:35:29;9.50;99.90
34726;DHT22;20951;50.818;4.344;2023-02-23T01:37:55;9.60;99.90
34726;DHT22;20951;50.818;4.344;2023-02-23T01:40:23;9.60;99.90
34726;DHT22;20951;50.818;4.344;2023-02-23T01:45:33;9.50;99.90
34726;DHT22;20951;50.818;4.344;2023-02-23T01:48:11;9.60;99.90
34726;DHT22;20951;50.818;4.344;2023-02-23T01:50:53;9.70;99.90
34726;DHT22;20951;50.818;4.344;2023-02-23T01:53:20;9.70;99.90
34726;DHT22;20951;50.818;4.344;2023-02-23T01:55:59;9.80;99.90
34726;DHT22;20951;50.818;4.344;2023-02-23T01:58:26;9.80;99.90
34726;DHT22;20951;50.818;4.344;2023-02-23T02:00:55;9.70;99.90
34726;DHT22;20951;50.818;4.344;2023-02-23T02:05:58;9.50;99.90
34726;DHT22;20951;50.818;4.344;2023-02-23T02:08:30;9.50;99.90
34726;DHT22;20951;50.818;4.344;2023-02-23T02:10:57;9.60;99.90
34726;DHT22;20951;50.818;4.344;2023-02-23T02:13:32;9.60;99.90
34726;DHT22;20951;50.818;4.344;2023-02-23T02:27:04;9.60;99.90
34726;DHT22;20951;50.818;4.344;2023-02-23T02:38:40;9.70;99.90
34726;DHT22;20951;50.818;4.344;2023-02-23T02:41:16;9.60;99.90
34726;DHT22;20951;50.818;4.344;2023-02-23T02:43:46;9.50;99.90
34726;DHT22;20951;50.818;4.344;2023-02-23T02:46:20;9.30;99.90
34726;DHT22;20951;50.818;4.344;2023-02-23T02:51:43;9.50;99.90
34726;DHT22;20951;50.818;4.344;2023-02-23T02:54:38;9.50;99.90
34726;DHT22;20951;50.818;4.344;2023-02-23T02:57:06;9.50;99.90
34726;DHT22;20951;50.818;4.344;2023-02-23T02:59:46;9.60;99.90
34726;DHT22;20951;50.818;4.344;2023-02-23T03:02:32;9.60;99.90
34726;DHT22;20951;50.818;4.344;2023-02-23T03:05:22;9.70;99.90
34726;DHT22;20951;50.818;4.344;2023-02-23T03:11:12;9.80;99.90
34726;DHT22;20951;50.818;4.344;2023-02-23T03:14:10;9.80;99.90
34726;DHT22;20951;50.818;4.344;2023-02-23T03:20:05;9.60;99.90
34726;DHT22;20951;50.818;4.344;2023-02-23T03:26:39;9.50;99.90
34726;DHT22;20951;50.818;4.344;2023-02-23T03:29:53;9.50;99.90
34726;DHT22;20951;50.818;4.344;2023-02-23T03:32:50;9.50;99.90
34726;DHT22;20951;50.818;4.344;2023-02-23T03:38:35;9.60;99.90
34726;DHT22;20951;50.818;4.344;2023-02-23T03:41:22;9.60;99.90
34726;DHT22;20951;50.818;4.344;2023-02-23T03:44:18;9.60;99.90
34726;DHT22;20951;50.818;4.344;2023-02-23T03:47:05;9.70;99.90
34726;DHT22;20951;50.818;4.344;2023-02-23T03:49:53;9.50;99.90
34726;DHT22;20951;50.818;4.344;2023-02-23T03:52:45;9.40;99.90
34726;DHT22;20951;50.818;4.344;2023-02-23T03:55:35;9.40;99.90
34726;DHT22;20951;50.818;4.344;2023-02-23T03:58:31;9.50;99.90
34726;DHT22;20951;50.818;4.344;2023-02-23T04:01:18;9.50;99.90
34726;DHT22;20951;50.818;4.344;2023-02-23T04:04:04;9.70;99.90
34726;DHT22;20951;50.818;4.344;2023-02-23T04:06:50;9.60;99.90
34726;DHT22;20951;50.818;4.344;2023-02-23T04:09:35;9.60;99.90
34726;DHT22;20951;50.818;4.344;2023-02-23T04:12:45;9.60;99.90
34726;DHT22;20951;50.818;4.344;2023-02-23T04:15:39;9.70;99.90
34726;DHT22;20951;50.818;4.344;2023-02-23T04:18:10;9.70;99.90
34726;DHT22;20951;50.818;4.344;2023-02-23T04:20:36;9.70;99.90
34726;DHT22;20951;50.818;4.344;2023-02-23T04:23:02;9.70;99.90
34726;DHT22;20951;50.818;4.344;2023-02-23T04:25:29;9.60;99.90
34726;DHT22;20951;50.818;4.344;2023-02-23T04:27:55;9.60;99.90
34726;DHT22;20951;50.818;4.344;2023-02-23T04:30:21;9.70;99.90
34726;DHT22;20951;50.818;4.344;2023-02-23T04:32:51;9.70;99.90
34726;DHT22;20951;50.818;4.344;2023-02-23T04:35:17;9.70;99.90
34726;DHT22;20951;50.818;4.344;2023-02-23T04:37:43;9.70;99.90
34726;DHT22;20951;50.818;4.344;2023-02-23T04:40:09;9.80;99.90
34726;DHT22;20951;50.818;4.344;2023-02-23T04:42:37;9.80;99.90
34726;DHT22;20951;50.818;4.344;2023-02-23T04:45:03;9.70;99.90
34726;DHT22;20951;50.818;4.344;2023-02-23T04:47:29;9.80;99.90
34726;DHT22;20951;50.818;4.344;2023-02-23T04:49:55;9.70;99.90
34726;DHT22;20951;50.818;4.344;2023-02-23T04:52:21;9.60;99.90
34726;DHT22;20951;50.818;4.344;2023-02-23T04:54:47;9.70;99.90
34726;DHT22;20951;50.818;4.344;2023-02-23T04:57:13;9.70;99.90
34726;DHT22;20951;50.818;4.344;2023-02-23T04:59:39;9.70;99.90
34726;DHT22;20951;50.818;4.344;2023-02-23T05:02:05;9.70;99.90
34726;DHT22;20951;50.818;4.344;2023-02-23T05:04:31;9.70;99.90
34726;DHT22;20951;50.818;4.344;2023-02-23T05:06:59;9.80;99.90
34726;DHT22;20951;50.818;4.344;2023-02-23T05:09:25;9.90;99.90
34726;DHT22;20951;50.818;4.344;2023-02-23T05:11:51;9.80;99.90
34726;DHT22;20951;50.818;4.344;2023-02-23T05:14:17;9.90;99.90
34726;DHT22;20951;50.818;4.344;2023-02-23T05:16:43;9.80;99.90
34726;DHT22;20951;50.818;4.344;2023-02-23T05:19:09;9.80;99.90
34726;DHT22;20951;50.818;4.344;2023-02-23T05:21:35;9.80;99.90
34726;DHT22;20951;50.818;4.344;2023-02-23T05:24:00;10.00;99.90
34726;DHT22;20951;50.818;4.344;2023-02-23T05:26:27;10.00;99.90
34726;DHT22;20951;50.818;4.344;2023-02-23T05:28:53;9.90;99.90
34726;DHT22;20951;50.818;4.344;2023-02-23T05:31:22;9.90;99.90
34726;DHT22;20951;50.818;4.344;2023-02-23T05:33:48;9.90;99.90
34726;DHT22;20951;50.818;4.344;2023-02-23T05:36:15;9.80;99.90
34726;DHT22;20951;50.818;4.344;2023-02-23T05:38:42;9.80;99.90
34726;DHT22;20951;50.818;4.344;2023-02-23T05:41:11;9.80;99.90
34726;DHT22;20951;50.818;4.344;2023-02-23T05:43:38;9.80;99.90
34726;DHT22;20951;50.818;4.344;2023-02-23T05:46:09;9.80;99.90
34726;DHT22;20951;50.818;4.344;2023-02-23T05:48:35;9.80;99.90
34726;DHT22;20951;50.818;4.344;2023-02-23T05:51:06;9.80;99.90
34726;DHT22;20951;50.818;4.344;2023-02-23T05:53:33;9.80;99.90
34726;DHT22;20951;50.818;4.344;2023-02-23T05:56:00;10.00;99.90
34726;DHT22;20951;50.818;4.344;2023-02-23T05:58:27;10.00;99.90
34726;DHT22;20951;50.818;4.344;2023-02-23T06:00:53;9.90;99.90
34726;DHT22;20951;50.818;4.344;2023-02-23T06:03:19;9.90;99.90
34726;DHT22;20951;50.818;4.344;2023-02-23T06:05:50;9.90;99.90
34726;DHT22;20951;50.818;4.344;2023-02-23T06:08:16;10.00;99.90
34726;DHT22;20951;50.818;4.344;2023-02-23T06:10:42;10.10;99.90
34726;DHT22;20951;50.818;4.344;2023-02-23T06:13:09;10.10;99.90
34726;DHT22;20951;50.818;4.344;2023-02-23T06:15:35;10.10;99.90
34726;DHT22;20951;50.818;4.344;2023-02-23T06:18:02;10.20;99.90
34726;DHT22;20951;50.818;4.344;2023-02-23T06:20:28;10.20;99.90
34726;DHT22;20951;50.818;4.344;2023-02-23T06:22:54;10.20;99.90
34726;DHT22;20951;50.818;4.344;2023-02-23T06:25:20;10.20;99.90
34726;DHT22;20951;50.818;4.344;2023-02-23T06:27:46;10.30;99.90
34726;DHT22;20951;50.818;4.344;2023-02-23T06:30:12;10.30;99.90
34726;DHT22;20951;50.818;4.344;2023-02-23T06:32:39;10.30;99.90
34726;DHT22;20951;50.818;4.344;2023-02-23T06:35:06;10.30;99.90
34726;DHT22;20951;50.818;4.344;2023-02-23T06:37:33;10.40;99.90
34726;DHT22;20951;50.818;4.344;2023-02-23T06:39:59;10.40;99.90
34726;DHT22;20951;50.818;4.344;2023-02-23T06:42:25;10.40;99.90
34726;DHT22;20951;50.818;4.344;2023-02-23T06:44:51;10.50;99.90
34726;DHT22;20951;50.818;4.344;2023-02-23T06:47:18;10.30;99.90
34726;DHT22;20951;50.818;4.344;2023-02-23T06:49:46;10.40;99.90
34726;DHT22;20951;50.818;4.344;2023-02-23T06:52:14;10.40;99.90
34726;DHT22;20951;50.818;4.344;2023-02-23T06:54:42;10.50;99.90
34726;DHT22;20951;50.818;4.344;2023-02-23T06:57:10;10.40;99.90
34726;DHT22;20951;50.818;4.344;2023-02-23T06:59:39;10.50;99.90
34726;DHT22;20951;50.818;4.344;2023-02-23T07:02:06;10.40;99.90
34726;DHT22;20951;50.818;4.344;2023-02-23T07:04:35;10.50;99.90
34726;DHT22;20951;50.818;4.344;2023-02-23T07:07:02;10.60;99.90
34726;DHT22;20951;50.818;4.344;2023-02-23T07:09:30;10.40;99.90
34726;DHT22;20951;50.818;4.344;2023-02-23T07:11:59;10.40;99.90
34726;DHT22;20951;50.818;4.344;2023-02-23T07:14:26;10.30;99.90
34726;DHT22;20951;50.818;4.344;2023-02-23T07:16:53;10.30;99.90
34726;DHT22;20951;50.818;4.344;2023-02-23T07:19:21;10.30;99.90
34726;DHT22;20951;50.818;4.344;2023-02-23T07:21:48;10.40;99.90
34726;DHT22;20951;50.818;4.344;2023-02-23T07:24:17;10.50;99.90
34726;DHT22;20951;50.818;4.344;2023-02-23T07:26:44;10.40;99.90
34726;DHT22;20951;50.818;4.344;2023-02-23T07:29:12;10.40;99.90
34726;DHT22;20951;50.818;4.344;2023-02-23T07:31:41;10.40;99.90
34726;DHT22;20951;50.818;4.344;2023-02-23T07:34:08;10.40;99.90
34726;DHT22;20951;50.818;4.344;2023-02-23T07:36:36;10.30;99.90
34726;DHT22;20951;50.818;4.344;2023-02-23T07:39:04;10.30;99.90
34726;DHT22;20951;50.818;4.344;2023-02-23T07:41:32;10.30;99.90
34726;DHT22;20951;50.818;4.344;2023-02-23T07:44:00;10.30;99.90
34726;DHT22;20951;50.818;4.344;2023-02-23T07:46:28;10.20;99.90
34726;DHT22;20951;50.818;4.344;2023-02-23T07:48:57;10.20;99.90
34726;DHT22;20951;50.818;4.344;2023-02-23T07:51:25;10.10;99.90
34726;DHT22;20951;50.818;4.344;2023-02-23T07:53:52;10.10;99.90
34726;DHT22;20951;50.818;4.344;2023-02-23T07:56:21;9.90;99.90
34726;DHT22;20951;50.818;4.344;2023-02-23T07:58:48;10.00;99.90
34726;DHT22;20951;50.818;4.344;2023-02-23T08:01:17;9.90;99.90
34726;DHT22;20951;50.818;4.344;2023-02-23T08:03:45;10.00;99.90
34726;DHT22;20951;50.818;4.344;2023-02-23T08:06:15;9.80;99.90
34726;DHT22;20951;50.818;4.344;2023-02-23T08:08:43;9.80;99.90
34726;DHT22;20951;50.818;4.344;2023-02-23T08:11:12;9.70;99.90
34726;DHT22;20951;50.818;4.344;2023-02-23T08:13:40;9.70;99.90
34726;DHT22;20951;50.818;4.344;2023-02-23T08:16:08;9.70;99.90
34726;DHT22;20951;50.818;4.344;2023-02-23T08:18:35;9.70;99.90
34726;DHT22;20951;50.818;4.344;2023-02-23T08:21:04;9.70;99.90
34726;DHT22;20951;50.818;4.344;2023-02-23T08:23:33;9.80;99.90
34726;DHT22;20951;50.818;4.344;2023-02-23T08:26:01;9.70;99.90
34726;DHT22;20951;50.818;4.344;2023-02-23T08:28:29;9.70;99.90
34726;DHT22;20951;50.818;4.344;2023-02-23T08:30:57;9.60;99.90
34726;DHT22;20951;50.818;4.344;2023-02-23T08:33:26;9.60;99.90
34726;DHT22;20951;50.818;4.344;2023-02-23T08:35:53;9.50;99.90
34726;DHT22;20951;50.818;4.344;2023-02-23T08:38:24;9.50;99.90
34726;DHT22;20951;50.818;4.344;2023-02-23T08:40:52;9.60;99.90
34726;DHT22;20951;50.818;4.344;2023-02-23T08:43:20;9.70;99.90
34726;DHT22;20951;50.818;4.344;2023-02-23T08:45:48;9.80;99.90
34726;DHT22;20951;50.818;4.344;2023-02-23T08:48:16;9.80;99.90
34726;DHT22;20951;50.818;4.344;2023-02-23T08:50:45;9.70;99.90
34726;DHT22;20951;50.818;4.344;2023-02-23T08:53:18;9.70;99.90
34726;DHT22;20951;50.818;4.344;2023-02-23T08:55:46;9.70;99.90
34726;DHT22;20951;50.818;4.344;2023-02-23T08:58:15;9.70;99.90
34726;DHT22;20951;50.818;4.344;2023-02-23T09:00:43;9.70;99.90
34726;DHT22;20951;50.818;4.344;2023-02-23T09:03:11;9.80;99.90
34726;DHT22;20951;50.818;4.344;2023-02-23T09:05:39;9.80;99.90
34726;DHT22;20951;50.818;4.344;2023-02-23T09:08:09;9.80;99.90
34726;DHT22;20951;50.818;4.344;2023-02-23T09:10:37;10.00;99.90
34726;DHT22;20951;50.818;4.344;2023-02-23T09:13:05;10.20;99.90
34726;DHT22;20951;50.818;4.344;2023-02-23T09:15:33;10.10;99.90
34726;DHT22;20951;50.818;4.344;2023-02-23T09:18:01;10.20;99.90
34726;DHT22;20951;50.818;4.344;2023-02-23T09:20:28;10.40;99.90
34726;DHT22;20951;50.818;4.344;2023-02-23T09:22:56;10.50;99.90
34726;DHT22;20951;50.818;4.344;2023-02-23T09:25:24;10.50;99.90
34726;DHT22;20951;50.818;4.344;2023-02-23T09:27:53;10.70;99.90
34726;DHT22;20951;50.818;4.344;2023-02-23T09:30:22;10.90;99.90
34726;DHT22;20951;50.818;4.344;2023-02-23T09:32:50;11.00;99.90
34726;DHT22;20951;50.818;4.344;2023-02-23T09:35:20;11.10;99.90
34726;DHT22;20951;50.818;4.344;2023-02-23T09:37:49;11.20;99.90
34726;DHT22;20951;50.818;4.344;2023-02-23T09:40:21;11.40;99.90
34726;DHT22;20951;50.818;4.344;2023-02-23T09:43:03;11.50;99.90
34726;DHT22;20951;50.818;4.344;2023-02-23T09:48:28;11.90;99.90
34726;DHT22;20951;50.818;4.344;2023-02-23T09:50:57;11.80;99.90
34726;DHT22;20951;50.818;4.344;2023-02-23T09:53:48;11.70;99.90
34726;DHT22;20951;50.818;4.344;2023-02-23T09:56:36;11.40;99.90
34726;DHT22;20951;50.818;4.344;2023-02-23T09:59:05;11.20;99.90
34726;DHT22;20951;50.818;4.344;2023-02-23T10:06:52;11.20;99.90
34726;DHT22;20951;50.818;4.344;2023-02-23T10:12:27;11.50;99.90
34726;DHT22;20951;50.818;4.344;2023-02-23T10:23:07;11.60;99.90
34726;DHT22;20951;50.818;4.344;2023-02-23T10:25:42;11.60;99.90
34726;DHT22;20951;50.818;4.344;2023-02-23T10:28:18;11.40;99.90
34726;DHT22;20951;50.818;4.344;2023-02-23T10:30:47;11.50;99.90
34726;DHT22;20951;50.818;4.344;2023-02-23T10:33:35;11.60;99.90
34726;DHT22;20951;50.818;4.344;2023-02-23T10:36:17;11.80;99.90
34726;DHT22;20951;50.818;4.344;2023-02-23T10:38:45;12.10;99.90
34726;DHT22;20951;50.818;4.344;2023-02-23T10:41:13;12.20;99.90
34726;DHT22;20951;50.818;4.344;2023-02-23T10:43:41;12.20;99.90
34726;DHT22;20951;50.818;4.344;2023-02-23T10:46:19;12.00;99.90
34726;DHT22;20951;50.818;4.344;2023-02-23T10:48:49;11.90;99.90
34726;DHT22;20951;50.818;4.344;2023-02-23T10:51:27;12.30;99.90
34726;DHT22;20951;50.818;4.344;2023-02-23T10:53:56;12.80;99.90
34726;DHT22;20951;50.818;4.344;2023-02-23T10:56:25;13.00;99.90
34726;DHT22;20951;50.818;4.344;2023-02-23T10:58:59;13.40;99.90
34726;DHT22;20951;50.818;4.344;2023-02-23T11:01:33;13.50;99.90
34726;DHT22;20951;50.818;4.344;2023-02-23T11:04:26;13.60;99.90
34726;DHT22;20951;50.818;4.344;2023-02-23T11:07:15;13.60;99.90
34726;DHT22;20951;50.818;4.344;2023-02-23T11:09:43;13.60;99.90
34726;DHT22;20951;50.818;4.344;2023-02-23T11:12:25;13.70;99.90
34726;DHT22;20951;50.818;4.344;2023-02-23T11:14:56;13.70;99.90
34726;DHT22;20951;50.818;4.344;2023-02-23T11:17:35;13.70;99.90
34726;DHT22;20951;50.818;4.344;2023-02-23T11:20:26;13.50;99.90
34726;DHT22;20951;50.818;4.344;2023-02-23T11:22:56;13.10;99.90
34726;DHT22;20951;50.818;4.344;2023-02-23T11:25:30;13.20;99.90
34726;DHT22;20951;50.818;4.344;2023-02-23T11:27:59;13.00;99.90
34726;DHT22;20951;50.818;4.344;2023-02-23T11:30:34;12.80;99.90
34726;DHT22;20951;50.818;4.344;2023-02-23T11:33:04;12.50;99.90
34726;DHT22;20951;50.818;4.344;2023-02-23T11:35:38;12.40;99.90
34726;DHT22;20951;50.818;4.344;2023-02-23T11:38:26;12.40;99.90
34726;DHT22;20951;50.818;4.344;2023-02-23T11:41:02;12.20;99.90
34726;DHT22;20951;50.818;4.344;2023-02-23T11:43:31;12.10;99.90
34726;DHT22;20951;50.818;4.344;2023-02-23T11:46:00;11.90;99.90
34726;DHT22;20951;50.818;4.344;2023-02-23T11:48:36;11.70;99.90
34726;DHT22;20951;50.818;4.344;2023-02-23T11:51:08;11.60;99.90
34726;DHT22;20951;50.818;4.344;2023-02-23T11:53:43;11.40;99.90
34726;DHT22;20951;50.818;4.344;2023-02-23T11:56:12;11.20;99.90
34726;DHT22;20951;50.818;4.344;2023-02-23T11:58:58;11.10;99.90
34726;DHT22;20951;50.818;4.344;2023-02-23T12:02:24;11.20;99.90
34726;DHT22;20951;50.818;4.344;2023-02-23T12:04:37;11.00;99.90
34726;DHT22;20951;50.818;4.344;2023-02-23T12:07:26;10.90;99.90
34726;DHT22;20951;50.818;4.344;2023-02-23T12:13:12;11.30;99.90
34726;DHT22;20951;50.818;4.344;2023-02-23T12:16:06;11.40;99.90
34726;DHT22;20951;50.818;4.344;2023-02-23T12:21:50;11.60;99.90
34726;DHT22;20951;50.818;4.344;2023-02-23T12:24:42;11.40;99.90
34726;DHT22;20951;50.818;4.344;2023-02-23T12:27:15;11.50;99.90
34726;DHT22;20951;50.818;4.344;2023-02-23T12:29:55;11.40;99.90
34726;DHT22;20951;50.818;4.344;2023-02-23T12:33:14;11.50;99.90
34726;DHT22;20951;50.818;4.344;2023-02-23T12:40:41;11.40;99.90
34726;DHT22;20951;50.818;4.344;2023-02-23T12:46:15;11.60;99.90
34726;DHT22;20951;50.818;4.344;2023-02-23T12:51:37;12.00;99.90
34726;DHT22;20951;50.818;4.344;2023-02-23T12:54:08;12.10;99.90
34726;DHT22;20951;50.818;4.344;2023-02-23T12:59:42;11.90;99.90
34726;DHT22;20951;50.818;4.344;2023-02-23T13:13:47;11.70;99.90
34726;DHT22;20951;50.818;4.344;2023-02-23T13:19:01;11.60;99.90
34726;DHT22;20951;50.818;4.344;2023-02-23T13:21:54;11.70;99.90
34726;DHT22;20951;50.818;4.344;2023-02-23T13:24:32;11.80;99.90
34726;DHT22;20951;50.818;4.344;2023-02-23T13:27:10;11.80;99.90
34726;DHT22;20951;50.818;4.344;2023-02-23T13:29:42;11.90;99.90
34726;DHT22;20951;50.818;4.344;2023-02-23T13:32:22;11.80;99.90
34726;DHT22;20951;50.818;4.344;2023-02-23T13:34:59;11.90;99.90
34726;DHT22;20951;50.818;4.344;2023-02-23T13:37:40;12.00;99.90
34726;DHT22;20951;50.818;4.344;2023-02-23T13:56:26;11.20;99.90
34726;DHT22;20951;50.818;4.344;2023-02-23T13:59:08;11.30;99.90
34726;DHT22;20951;50.818;4.344;2023-02-23T14:01:38;11.40;99.90
34726;DHT22;20951;50.818;4.344;2023-02-23T14:04:35;11.20;99.90
34726;DHT22;20951;50.818;4.344;2023-02-23T14:07:14;11.10;99.90
34726;DHT22;20951;50.818;4.344;2023-02-23T14:09:51;11.20;99.90
34726;DHT22;20951;50.818;4.344;2023-02-23T14:26:45;11.70;99.90
34726;DHT22;20951;50.818;4.344;2023-02-23T14:29:31;11.60;99.90
34726;DHT22;20951;50.818;4.344;2023-02-23T14:34:45;11.50;99.90
34726;DHT22;20951;50.818;4.344;2023-02-23T14:37:25;11.60;99.90
34726;DHT22;20951;50.818;4.344;2023-02-23T14:39:54;11.60;99.90
34726;DHT22;20951;50.818;4.344;2023-02-23T14:42:24;11.70;99.90
34726;DHT22;20951;50.818;4.344;2023-02-23T14:44:54;11.90;99.90
34726;DHT22;20951;50.818;4.344;2023-02-23T14:47:24;11.90;99.90
34726;DHT22;20951;50.818;4.344;2023-02-23T14:49:56;11.90;99.90
34726;DHT22;20951;50.818;4.344;2023-02-23T14:52:35;11.90;99.90
34726;DHT22;20951;50.818;4.344;2023-02-23T14:57:48;11.60;99.90
34726;DHT22;20951;50.818;4.344;2023-02-23T15:00:29;11.70;99.90
34726;DHT22;20951;50.818;4.344;2023-02-23T15:03:06;11.80;99.90
34726;DHT22;20951;50.818;4.344;2023-02-23T15:05:58;11.90;99.90
34726;DHT22;20951;50.818;4.344;2023-02-23T15:08:28;12.00;99.90
34726;DHT22;20951;50.818;4.344;2023-02-23T15:11:10;12.10;99.90
34726;DHT22;20951;50.818;4.344;2023-02-23T15:13:42;12.20;99.90
34726;DHT22;20951;50.818;4.344;2023-02-23T15:16:27;12.20;99.90
34726;DHT22;20951;50.818;4.344;2023-02-23T15:18:55;12.00;99.90
34726;DHT22;20951;50.818;4.344;2023-02-23T15:21:25;12.00;99.90
34726;DHT22;20951;50.818;4.344;2023-02-23T15:24:06;12.00;99.90
34726;DHT22;20951;50.818;4.344;2023-02-23T15:26:36;11.80;99.90
34726;DHT22;20951;50.818;4.344;2023-02-23T15:31:43;11.90;99.90
34726;DHT22;20951;50.818;4.344;2023-02-23T15:34:21;12.00;99.90
34726;DHT22;20951;50.818;4.344;2023-02-23T15:37:03;12.10;99.90
34726;DHT22;20951;50.818;4.344;2023-02-23T15:39:37;12.20;99.90
34726;DHT22;20951;50.818;4.344;2023-02-23T15:42:12;11.90;99.90
34726;DHT22;20951;50.818;4.344;2023-02-23T15:44:41;11.90;99.90
34726;DHT22;20951;50.818;4.344;2023-02-23T15:47:21;11.80;99.90
34726;DHT22;20951;50.818;4.344;2023-02-23T15:50:04;11.70;99.90
34726;DHT22;20951;50.818;4.344;2023-02-23T15:52:33;11.40;99.90
34726;DHT22;20951;50.818;4.344;2023-02-23T15:55:07;11.40;99.90
34726;DHT22;20951;50.818;4.344;2023-02-23T15:57:52;11.40;99.90
34726;DHT22;20951;50.818;4.344;2023-02-23T16:00:28;11.40;99.90
34726;DHT22;20951;50.818;4.344;2023-02-23T16:03:00;11.40;99.90
34726;DHT22;20951;50.818;4.344;2023-02-23T16:05:30;11.50;99.90
34726;DHT22;20951;50.818;4.344;2023-02-23T16:08:06;11.50;99.90
34726;DHT22;20951;50.818;4.344;2023-02-23T16:10:45;11.40;99.90
34726;DHT22;20951;50.818;4.344;2023-02-23T16:13:16;11.30;99.90
34726;DHT22;20951;50.818;4.344;2023-02-23T16:15:45;11.30;99.90
34726;DHT22;20951;50.818;4.344;2023-02-23T16:18:25;11.20;99.90
34726;DHT22;20951;50.818;4.344;2023-02-23T16:20:59;11.20;99.90
34726;DHT22;20951;50.818;4.344;2023-02-23T16:23:39;11.20;99.90
34726;DHT22;20951;50.818;4.344;2023-02-23T16:26:16;11.30;99.90
34726;DHT22;20951;50.818;4.344;2023-02-23T16:28:45;11.30;99.90
34726;DHT22;20951;50.818;4.344;2023-02-23T16:31:20;11.50;99.90
34726;DHT22;20951;50.818;4.344;2023-02-23T16:33:57;11.50;99.90
34726;DHT22;20951;50.818;4.344;2023-02-23T16:36:35;11.50;99.90
34726;DHT22;20951;50.818;4.344;2023-02-23T16:39:10;11.50;99.90
34726;DHT22;20951;50.818;4.344;2023-02-23T16:41:39;11.50;99.90
34726;DHT22;20951;50.818;4.344;2023-02-23T16:44:15;11.50;99.90
34726;DHT22;20951;50.818;4.344;2023-02-23T16:49:30;11.20;99.90
34726;DHT22;20951;50.818;4.344;2023-02-23T16:51:59;11.20;99.90
34726;DHT22;20951;50.818;4.344;2023-02-23T16:54:27;11.30;99.90
34726;DHT22;20951;50.818;4.344;2023-02-23T16:56:55;11.30;99.90
34726;DHT22;20951;50.818;4.344;2023-02-23T16:59:23;11.30;99.90
34726;DHT22;20951;50.818;4.344;2023-02-23T17:01:51;11.20;99.90
34726;DHT22;20951;50.818;4.344;2023-02-23T17:04:19;11.30;99.90
34726;DHT22;20951;50.818;4.344;2023-02-23T17:06:48;11.30;99.90
34726;DHT22;20951;50.818;4.344;2023-02-23T17:09:23;11.30;99.90
34726;DHT22;20951;50.818;4.344;2023-02-23T17:11:51;11.50;99.90
34726;DHT22;20951;50.818;4.344;2023-02-23T17:14:26;11.40;99.90
34726;DHT22;20951;50.818;4.344;2023-02-23T17:16:53;11.30;99.90
34726;DHT22;20951;50.818;4.344;2023-02-23T17:19:21;11.30;99.90
34726;DHT22;20951;50.818;4.344;2023-02-23T17:21:50;11.20;99.90
34726;DHT22;20951;50.818;4.344;2023-02-23T17:24:19;11.20;99.90
34726;DHT22;20951;50.818;4.344;2023-02-23T17:26:51;11.20;99.90
34726;DHT22;20951;50.818;4.344;2023-02-23T17:29:21;11.10;99.90
34726;DHT22;20951;50.818;4.344;2023-02-23T17:31:50;11.10;99.90
34726;DHT22;20951;50.818;4.344;2023-02-23T17:34:19;11.10;99.90
34726;DHT22;20951;50.818;4.344;2023-02-23T17:36:47;11.00;99.90
34726;DHT22;20951;50.818;4.344;2023-02-23T17:39:15;10.90;99.90
34726;DHT22;20951;50.818;4.344;2023-02-23T17:41:43;11.00;99.90
34726;DHT22;20951;50.818;4.344;2023-02-23T17:44:11;11.10;99.90
34726;DHT22;20951;50.818;4.344;2023-02-23T17:46:39;11.20;99.90
34726;DHT22;20951;50.818;4.344;2023-02-23T17:49:07;11.10;99.90
34726;DHT22;20951;50.818;4.344;2023-02-23T17:51:34;11.20;99.90
34726;DHT22;20951;50.818;4.344;2023-02-23T17:54:03;11.20;99.90
34726;DHT22;20951;50.818;4.344;2023-02-23T17:56:31;11.10;99.90
34726;DHT22;20951;50.818;4.344;2023-02-23T17:58:59;11.10;99.90
34726;DHT22;20951;50.818;4.344;2023-02-23T18:01:27;11.00;99.90
34726;DHT22;20951;50.818;4.344;2023-02-23T18:03:55;10.90;99.90
34726;DHT22;20951;50.818;4.344;2023-02-23T18:06:23;11.00;99.90
34726;DHT22;20951;50.818;4.344;2023-02-23T18:08:52;11.00;99.90
34726;DHT22;20951;50.818;4.344;2023-02-23T18:11:20;11.10;99.90
34726;DHT22;20951;50.818;4.344;2023-02-23T18:13:48;11.10;99.90
34726;DHT22;20951;50.818;4.344;2023-02-23T18:16:18;11.10;99.90
34726;DHT22;20951;50.818;4.344;2023-02-23T18:18:45;11.10;99.90
34726;DHT22;20951;50.818;4.344;2023-02-23T18:21:15;11.20;99.90
34726;DHT22;20951;50.818;4.344;2023-02-23T18:23:42;11.20;99.90
34726;DHT22;20951;50.818;4.344;2023-02-23T18:26:13;11.20;99.90